LIMJ Airport Information

Runway Information
Runway 10 Length 9564 ft width 148 ft
Elevation 9 ft Threshold 0 ft Heading 105
Runway 28 Length 9564 ft Width 148 ft
Elevation 12 ft Threshold 528 ft Heading 285
Airport Frequencies
Type APP Name APP Frequency 119.6 MHZ
Type ATIS Name ATIS Frequency 122.825 MHZ
Type TWR Name TWR Frequency 118.6 MHZ
Airport Navaids
Type VOR-DME Name Genova Frequency 112800 KHZ
Type NDB Name Genova Frequency 318 KHZ
Type VOR-DME Name Genova Sestri Frequency 108600 KHZ
Airport Weather Information & NOTAM
ADDS - METARS form results

(1957 UTC 21 September 2020)
Data provider http://aviationweather.gov/metar/data/
 
METAR text: LIMJ 211950Z 02010KT CAVOK 22/17 Q1015
Conditions at: LIMJ (GENOVA/SESTRI , IT) observed 1950 UTC 21 September 2020
Temperature: 22.0°C (72°F)
Dewpoint: 17.0°C (63°F) [RH = 73%]
Pressure (altimeter): 29.97 inches Hg (1015.0 mb)
Winds: from the NNE (20 degrees) at 12 MPH (10 knots; 5.1 m/s)
Visibility: 6 or more miles (10+ km)
Ceiling: ceiling and visibility are OK
Clouds: unknown
Weather: no significant weather observed at this time

METAR text: LIMJ 211920Z 03006KT 9999 FEW030 22/17 Q1015
Conditions at: LIMJ (GENOVA/SESTRI , IT) observed 1920 UTC 21 September 2020
Temperature: 22.0°C (72°F)
Dewpoint: 17.0°C (63°F) [RH = 73%]
Pressure (altimeter): 29.97 inches Hg (1015.0 mb)
Winds: from the NNE (30 degrees) at 7 MPH (6 knots; 3.1 m/s)
Visibility: 6 or more miles (10+ km)
Ceiling: at least 12,000 feet AGL
Clouds: few clouds at 3000 feet AGL
Weather: no significant weather observed at this time

Forecast for: LIMJ (GENOVA/SESTRI , IT)
Text: TAF LIMJ 211700Z 2118/2218 VRB05KT 9999 BKN030
Forecast period: 1800 UTC 21 September 2020 to 0300 UTC 22 September 2020
Forecast type: FROM: standard forecast or significant change
Winds: variable direction winds at 6 MPH (5 knots; 2.6 m/s)
Visibility: 6 or more miles (10+ km)
Ceiling: 3000 feet AGL
Clouds: broken clouds at 3000 feet AGL
Weather: no significant weather forecast for this period
Text: BECMG 2203/2209 TSRA
Forecast period: 0300 to 1800 UTC 22 September 2020
Forecast type: BECOMING: Conditions expected to become as follows by 0900 UTC 22 September 2020
Winds: variable direction winds at 6 MPH (5 knots; 2.6 m/s)
Visibility: 6 or more miles (10+ km)
Ceiling: 3000 feet AGL
Clouds: broken clouds at 3000 feet AGL
Weather: TSRA  (rain associated with thunderstorm(s))